Dionea — ISYR — position and weather

sailwx.info

Track history (hours):
 
Tides and Currents Weather Stations Pressure Air Temp Water Temp Dewpoint Dewpoint Depression Visibility Wind Speed Wind Dir Waves Ship Positions

Dionea

Last reported at 2016-Jul-28 19:32 UTC. Time now 2016-Jul-28 20:17 UTC.
Position N 37°54' E 012°22'.

Length 52 m.

MMSI: 247159400.

Date/timePositionNaut miles runAvg speedWind from/ knotsBaromVisibWave heightAir tempDewpointWater temp
2016-Jul-28 19:32N 37°54' E 012°22'0 0.0
2016-Jul-28 18:33N 37°54' E 012°22'0 0.0
2016-Jul-28 17:32N 37°54' E 012°22'0 0.0
2016-Jul-28 16:30N 37°54' E 012°22'0 0.0
2016-Jul-28 15:32N 37°54' E 012°22'0 0.0
2016-Jul-28 10:28N 37°54' E 012°22'0 0.0
2016-Jul-28 09:33N 37°54' E 012°22'1 1.0
2016-Jul-28 08:14N 37°56' E 012°22'0 0.0
2016-Jul-28 07:22N 37°56' E 012°22'0 0.0
2016-Jul-28 06:33N 37°56' E 012°22'0 0.2
2016-Jul-28 05:30N 37°56' E 012°22'4 3.2
2016-Jul-28 04:21N 37°58' E 012°26'810.2
2016-Jul-28 03:33N 38°05' E 012°30'31 7.7
2016-Jul-27 23:33N 38°14' E 013°08'8 8.2
2016-Jul-27 22:34N 38°14' E 013°18'2 2.4
2016-Jul-27 21:33N 38°13' E 013°20'0 0.0
2016-Jul-27 20:33N 38°13' E 013°20'0 0.0
2016-Jul-27 19:33N 38°13' E 013°20'0 0.0
2016-Jul-27 18:34N 38°13' E 013°20'0 0.0
2016-Jul-27 17:33N 38°12' E 013°20'0 0.0
2016-Jul-27 16:33N 38°12' E 013°20'0 0.0
2016-Jul-27 15:34N 38°12' E 013°20'0 0.0
2016-Jul-27 14:34N 38°13' E 013°20'9 9.5
2016-Jul-27 13:33N 38°11' E 013°32'1211.2
2016-Jul-27 12:32N 38°10' E 013°47'59 2.3
2016-Jul-26 11:17N 38°28' E 014°58'8 8.7
2016-Jul-26 10:20N 38°20' E 015°01'28 0.6
2016-Jul-24 12:07N 38°35' E 014°31'48 4.1
2016-Jul-24 00:23N 38°17' E 013°34'6 7.7
2016-Jul-23 23:33N 38°15' E 013°27'6 5.7
2016-Jul-23 22:34N 38°13' E 013°20'0 0.0
2016-Jul-23 21:33N 38°13' E 013°20'0 0.0
2016-Jul-23 20:33N 38°13' E 013°20'0 0.0
2016-Jul-23 19:33N 38°13' E 013°20'0 0.0
2016-Jul-23 18:33N 38°13' E 013°20'7 6.6
2016-Jul-23 17:33N 38°13' E 013°12'19 6.3
2016-Jul-23 14:31N 38°04' E 012°50'0 0.0
2016-Jul-23 13:33N 38°04' E 012°50'0 0.0
2016-Jul-23 12:33N 38°04' E 012°50'0 0.0
2016-Jul-23 11:32N 38°04' E 012°50'3 0.2
2016-Jul-22 18:05N 38°02' E 012°53'0 0.0
2016-Jul-22 17:29N 38°02' E 012°53'0 0.0
2016-Jul-22 16:32N 38°02' E 012°53'0 0.0
2016-Jul-22 14:33N 38°02' E 012°53'0 0.0
2016-Jul-22 13:05N 38°02' E 012°53'0 0.0
2016-Jul-22 12:33N 38°02' E 012°53'0 0.0
2016-Jul-22 10:25N 38°02' E 012°53'0 0.0
2016-Jul-21 22:24N 38°02' E 012°53'0 0.0
2016-Jul-21 21:33N 38°02' E 012°53'0 0.0
2016-Jul-21 19:32N 38°02' E 012°53'0 0.0
2016-Jul-21 18:13N 38°02' E 012°53'0 0.0
2016-Jul-21 15:27N 38°02' E 012°53'0 0.0
2016-Jul-21 14:24N 38°02' E 012°53'0 0.0
2016-Jul-21 13:18N 38°02' E 012°53'0 0.0
2016-Jul-21 12:33N 38°02' E 012°53'33 2.6
2016-Jul-21 00:12N 38°31' E 013°12'710.1
2016-Jul-20 23:33N 38°37' E 013°17'1510.1
2016-Jul-20 22:05N 38°51' E 013°24'3610.1
2016-Jul-20 18:32N 39°25' E 013°36'1010.5
2016-Jul-20 17:32N 39°35' E 013°40'1010.4
2016-Jul-20 16:33N 39°45' E 013°43'4310.8
2016-Jul-20 12:33N 40°26' E 014°03'1110.8
2016-Jul-20 11:34N 40°36' E 014°08'1010.3
2016-Jul-20 10:33N 40°45' E 014°12'4 2.0
2016-Jul-20 08:31N 40°49' E 014°14'7 0.5
2016-Jul-19 18:22N 40°46' E 014°06'1011.8
2016-Jul-19 17:33N 40°47' E 013°54'1211.6
2016-Jul-19 16:33N 40°49' E 013°38'1211.9
2016-Jul-19 15:33N 40°51' E 013°23'1211.9
2016-Jul-19 14:33N 40°53' E 013°07'7 7.0
2016-Jul-19 13:33N 40°55' E 012°58'3 2.9
2016-Jul-19 12:32N 40°58' E 012°60'1111.0
2016-Jul-19 11:32N 41°05' E 012°49'  
Track history (hours):
 
Tides and Currents Weather Stations Pressure Air Temp Water Temp Dewpoint Dewpoint Depression Visibility Wind Speed Wind Dir Waves Ship Positions

Dionea

Last reported at 2016-Jul-28 19:32 UTC. Time now 2016-Jul-28 20:17 UTC.
Position N 37°54' E 012°22'.

Length 52 m.

MMSI: 247159400.

Date/timePositionNaut miles runAvg speedWind from/ knotsBaromVisibWave heightAir tempDewpointWater temp
2016-Jul-28 19:32N 37°54' E 012°22'0 0.0
2016-Jul-28 18:33N 37°54' E 012°22'0 0.0
2016-Jul-28 17:32N 37°54' E 012°22'0 0.0
2016-Jul-28 16:30N 37°54' E 012°22'0 0.0
2016-Jul-28 15:32N 37°54' E 012°22'0 0.0
2016-Jul-28 10:28N 37°54' E 012°22'0 0.0
2016-Jul-28 09:33N 37°54' E 012°22'1 1.0
2016-Jul-28 08:14N 37°56' E 012°22'0 0.0
2016-Jul-28 07:22N 37°56' E 012°22'0 0.0
2016-Jul-28 06:33N 37°56' E 012°22'0 0.2
2016-Jul-28 05:30N 37°56' E 012°22'4 3.2
2016-Jul-28 04:21N 37°58' E 012°26'810.2
2016-Jul-28 03:33N 38°05' E 012°30'31 7.7
2016-Jul-27 23:33N 38°14' E 013°08'8 8.2
2016-Jul-27 22:34N 38°14' E 013°18'2 2.4
2016-Jul-27 21:33N 38°13' E 013°20'0 0.0
2016-Jul-27 20:33N 38°13' E 013°20'0 0.0
2016-Jul-27 19:33N 38°13' E 013°20'0 0.0
2016-Jul-27 18:34N 38°13' E 013°20'0 0.0
2016-Jul-27 17:33N 38°12' E 013°20'0 0.0
2016-Jul-27 16:33N 38°12' E 013°20'0 0.0
2016-Jul-27 15:34N 38°12' E 013°20'0 0.0
2016-Jul-27 14:34N 38°13' E 013°20'9 9.5
2016-Jul-27 13:33N 38°11' E 013°32'1211.2
2016-Jul-27 12:32N 38°10' E 013°47'59 2.3
2016-Jul-26 11:17N 38°28' E 014°58'8 8.7
2016-Jul-26 10:20N 38°20' E 015°01'28 0.6
2016-Jul-24 12:07N 38°35' E 014°31'48 4.1
2016-Jul-24 00:23N 38°17' E 013°34'6 7.7
2016-Jul-23 23:33N 38°15' E 013°27'6 5.7
2016-Jul-23 22:34N 38°13' E 013°20'0 0.0
2016-Jul-23 21:33N 38°13' E 013°20'0 0.0
2016-Jul-23 20:33N 38°13' E 013°20'0 0.0
2016-Jul-23 19:33N 38°13' E 013°20'0 0.0
2016-Jul-23 18:33N 38°13' E 013°20'7 6.6
2016-Jul-23 17:33N 38°13' E 013°12'19 6.3
2016-Jul-23 14:31N 38°04' E 012°50'0 0.0
2016-Jul-23 13:33N 38°04' E 012°50'0 0.0
2016-Jul-23 12:33N 38°04' E 012°50'0 0.0
2016-Jul-23 11:32N 38°04' E 012°50'3 0.2
2016-Jul-22 18:05N 38°02' E 012°53'0 0.0
2016-Jul-22 17:29N 38°02' E 012°53'0 0.0
2016-Jul-22 16:32N 38°02' E 012°53'0 0.0
2016-Jul-22 14:33N 38°02' E 012°53'0 0.0
2016-Jul-22 13:05N 38°02' E 012°53'0 0.0
2016-Jul-22 12:33N 38°02' E 012°53'0 0.0
2016-Jul-22 10:25N 38°02' E 012°53'0 0.0
2016-Jul-21 22:24N 38°02' E 012°53'0 0.0
2016-Jul-21 21:33N 38°02' E 012°53'0 0.0
2016-Jul-21 19:32N 38°02' E 012°53'0 0.0
2016-Jul-21 18:13N 38°02' E 012°53'0 0.0
2016-Jul-21 15:27N 38°02' E 012°53'0 0.0
2016-Jul-21 14:24N 38°02' E 012°53'0 0.0
2016-Jul-21 13:18N 38°02' E 012°53'0 0.0
2016-Jul-21 12:33N 38°02' E 012°53'33 2.6
2016-Jul-21 00:12N 38°31' E 013°12'710.1
2016-Jul-20 23:33N 38°37' E 013°17'1510.1
2016-Jul-20 22:05N 38°51' E 013°24'3610.1
2016-Jul-20 18:32N 39°25' E 013°36'1010.5
2016-Jul-20 17:32N 39°35' E 013°40'1010.4
2016-Jul-20 16:33N 39°45' E 013°43'4310.8
2016-Jul-20 12:33N 40°26' E 014°03'1110.8
2016-Jul-20 11:34N 40°36' E 014°08'1010.3
2016-Jul-20 10:33N 40°45' E 014°12'4 2.0
2016-Jul-20 08:31N 40°49' E 014°14'7 0.5
2016-Jul-19 18:22N 40°46' E 014°06'1011.8
2016-Jul-19 17:33N 40°47' E 013°54'1211.6
2016-Jul-19 16:33N 40°49' E 013°38'1211.9
2016-Jul-19 15:33N 40°51' E 013°23'1211.9
2016-Jul-19 14:33N 40°53' E 013°07'7 7.0
2016-Jul-19 13:33N 40°55' E 012°58'3 2.9
2016-Jul-19 12:32N 40°58' E 012°60'1111.0
2016-Jul-19 11:32N 41°05' E 012°49'  

Dump ship's entire track history